Time;durP1;ratioP1;P1;durP2;ratioP2;P2;SDS_P1;SDS_P2;PMS_P1;PMS_P2;Temp;Humidity;BMP_temperature;BMP_pressure;BME280_temperature;BME280_humidity;BME280_pressure;Samples;Min_cycle;Max_cycle;Signal;HPM_P1;HPM_P2
2022/04/11 00:00:12;;;;;;;6.45;1.98;;;;;;;;;;5013698;28;20038;-70
2022/04/11 00:02:38;;;;;;;5.03;1.20;;;;;;;;;;5016795;28;20532;-70
2022/04/11 00:05:05;;;;;;;4.78;1.30;;;;;;;;;;5017700;28;20021;-70
2022/04/11 00:07:31;;;;;;;6.47;1.30;;;;;;;;;;5015250;28;20033;-70
2022/04/11 00:09:57;;;;;;;7.07;1.40;;;;;;;;;;5018984;28;20032;-70
2022/04/11 00:12:23;;;;;;;2.45;1.15;;;;;;;;;;5023160;28;20099;-74
2022/04/11 00:14:49;;;;;;;1.85;1.02;;;;;;;;;;5021784;28;20413;-71
2022/04/11 00:17:16;;;;;;;10.60;1.77;;;;;;;;;;5010149;28;20116;-71
2022/04/11 00:19:43;;;;;;;7.47;1.73;;;;;;;;;;5001773;28;20900;-71
2022/04/11 00:22:09;;;;;;;7.75;1.50;;;;;;;;;;5019294;28;20026;-71
2022/04/11 00:24:35;;;;;;;6.43;1.52;;;;;;;;;;5011988;28;20033;-70
2022/04/11 00:27:01;;;;;;;5.60;1.23;;;;;;;;;;4998701;28;20034;-71
2022/04/11 00:29:27;;;;;;;5.78;1.27;;;;;;;;;;5013455;28;20026;-74
2022/04/11 00:31:54;;;;;;;6.45;1.50;;;;;;;;;;5015885;28;20026;-71
2022/04/11 00:34:20;;;;;;;5.97;1.58;;;;;;;;;;5017363;28;20065;-71
2022/04/11 00:36:46;;;;;;;7.75;1.75;;;;;;;;;;4994939;28;20034;-71
2022/04/11 00:39:12;;;;;;;3.83;1.50;;;;;;;;;;5010437;28;20245;-73
2022/04/11 00:41:38;;;;;;;8.65;1.92;;;;;;;;;;5014521;28;20040;-70
2022/04/11 00:44:06;;;;;;;8.95;1.70;;;;;;;;;;5013931;28;20112;-70
2022/04/11 00:46:32;;;;;;;3.42;1.45;;;;;;;;;;5019949;28;20033;-70
2022/04/11 00:48:58;;;;;;;3.10;1.23;;;;;;;;;;5008653;28;20053;-70
2022/04/11 00:51:26;;;;;;;5.47;1.30;;;;;;;;;;5012618;28;20080;-74
2022/04/11 00:53:53;;;;;;;6.70;1.70;;;;;;;;;;5014452;28;20037;-70
2022/04/11 00:56:20;;;;;;;4.40;1.77;;;;;;;;;;5010290;28;20032;-70
2022/04/11 00:58:47;;;;;;;4.05;1.45;;;;;;;;;;5017716;28;20045;-70
2022/04/11 01:01:14;;;;;;;6.32;1.58;;;;;;;;;;5012088;28;20057;-70
2022/04/11 01:03:41;;;;;;;16.55;2.20;;;;;;;;;;5009508;28;20053;-71
2022/04/11 01:06:07;;;;;;;4.78;1.52;;;;;;;;;;5012241;28;20044;-71
2022/04/11 01:08:34;;;;;;;6.65;1.63;;;;;;;;;;5010964;28;20075;-71
2022/04/11 01:11:01;;;;;;;5.45;1.33;;;;;;;;;;5008814;28;20421;-70
2022/04/11 01:13:28;;;;;;;2.55;1.40;;;;;;;;;;5018203;28;20102;-70
2022/04/11 01:15:54;;;;;;;4.50;1.40;;;;;;;;;;5009775;28;20031;-70
2022/04/11 01:18:20;;;;;;;6.93;1.52;;;;;;;;;;5012810;28;20060;-70
2022/04/11 01:20:46;;;;;;;3.85;1.50;;;;;;;;;;5013848;28;20026;-70
2022/04/11 01:23:13;;;;;;;5.63;1.27;;;;;;;;;;5014930;28;20052;-70
2022/04/11 01:25:40;;;;;;;5.72;1.50;;;;;;;;;;5015925;28;20363;-70
2022/04/11 01:28:06;;;;;;;4.90;1.25;;;;;;;;;;5010923;28;20036;-70
2022/04/11 01:30:32;;;;;;;5.80;1.58;;;;;;;;;;5018311;28;20024;-70
2022/04/11 01:32:58;;;;;;;9.73;1.67;;;;;;;;;;5015440;28;20044;-70
2022/04/11 01:35:26;;;;;;;6.55;1.85;;;;;;;;;;5017439;28;20034;-70
2022/04/11 01:37:56;;;;;;;2.67;1.65;;;;;;;;;;5019114;28;20053;-70
2022/04/11 01:40:22;;;;;;;8.00;1.85;;;;;;;;;;5023655;28;20087;-70
2022/04/11 01:42:48;;;;;;;3.08;1.48;;;;;;;;;;5023498;28;20677;-70
2022/04/11 01:45:14;;;;;;;7.63;1.50;;;;;;;;;;5016142;28;20029;-70
2022/04/11 01:47:41;;;;;;;5.43;1.30;;;;;;;;;;5017953;28;20022;-70
2022/04/11 01:50:08;;;;;;;6.93;1.92;;;;;;;;;;4994852;28;20512;-70
2022/04/11 01:52:34;;;;;;;6.53;1.67;;;;;;;;;;5014728;28;20037;-71
2022/04/11 01:55:04;;;;;;;7.65;1.70;;;;;;;;;;5014015;28;20026;-70
2022/04/11 01:57:30;;;;;;;5.95;2.38;;;;;;;;;;5012356;28;20056;-71
2022/04/11 01:59:57;;;;;;;4.00;1.52;;;;;;;;;;5020258;28;20018;-71
2022/04/11 02:02:23;;;;;;;2.85;1.13;;;;;;;;;;4998508;28;20029;-70
2022/04/11 02:04:50;;;;;;;4.63;1.52;;;;;;;;;;5015130;28;20038;-70
2022/04/11 02:07:16;;;;;;;9.35;1.67;;;;;;;;;;4994696;28;20021;-70
2022/04/11 02:09:42;;;;;;;9.95;1.70;;;;;;;;;;4996187;28;20413;-74
2022/04/11 02:12:08;;;;;;;5.28;1.60;;;;;;;;;;5008821;28;20674;-73
2022/04/11 02:14:36;;;;;;;7.03;1.60;;;;;;;;;;5014272;28;20042;-70
2022/04/11 02:17:02;;;;;;;6.10;1.85;;;;;;;;;;5007980;28;20030;-70
2022/04/11 02:19:28;;;;;;;4.95;1.38;;;;;;;;;;5007982;28;20025;-71
2022/04/11 02:21:54;;;;;;;4.30;1.33;;;;;;;;;;5016347;28;20025;-75
2022/04/11 02:24:20;;;;;;;5.93;1.50;;;;;;;;;;5013551;28;20111;-73
2022/04/11 02:26:46;;;;;;;3.55;1.40;;;;;;;;;;5010940;28;20021;-70
2022/04/11 02:29:12;;;;;;;3.35;1.50;;;;;;;;;;5009713;28;20152;-73
2022/04/11 02:31:39;;;;;;;8.73;2.00;;;;;;;;;;5013783;28;20026;-70
2022/04/11 02:34:05;;;;;;;3.83;1.40;;;;;;;;;;5007633;28;20025;-70
2022/04/11 02:36:31;;;;;;;5.55;1.33;;;;;;;;;;5009918;28;20075;-70
2022/04/11 02:38:57;;;;;;;6.32;1.23;;;;;;;;;;5006487;28;20502;-70
2022/04/11 02:41:23;;;;;;;5.40;1.65;;;;;;;;;;5011300;28;20045;-71
2022/04/11 02:43:49;;;;;;;5.45;1.60;;;;;;;;;;5014901;28;20466;-70
2022/04/11 02:46:15;;;;;;;7.00;1.83;;;;;;;;;;5010427;28;20037;-70
2022/04/11 02:48:42;;;;;;;7.20;1.50;;;;;;;;;;5008392;28;20026;-70
2022/04/11 02:51:08;;;;;;;7.97;1.95;;;;;;;;;;5011481;28;20163;-72
2022/04/11 02:53:34;;;;;;;5.53;1.70;;;;;;;;;;5008921;28;20087;-70
2022/04/11 02:56:00;;;;;;;3.10;1.50;;;;;;;;;;5009616;28;20029;-70
2022/04/11 02:58:26;;;;;;;3.90;1.80;;;;;;;;;;5009125;28;20283;-70
2022/04/11 03:00:52;;;;;;;11.05;1.40;;;;;;;;;;5011393;28;20030;-70
2022/04/11 03:03:20;;;;;;;4.82;2.10;;;;;;;;;;4994457;28;20041;-70
2022/04/11 03:05:47;;;;;;;7.60;2.15;;;;;;;;;;5013334;28;20030;-70
2022/04/11 03:08:13;;;;;;;5.90;1.70;;;;;;;;;;4997488;28;20508;-70
2022/04/11 03:10:39;;;;;;;6.55;1.77;;;;;;;;;;4989710;28;20121;-72
2022/04/11 03:13:06;;;;;;;6.47;1.65;;;;;;;;;;5009785;28;20040;-71
2022/04/11 03:15:32;;;;;;;3.50;1.60;;;;;;;;;;5012789;28;20102;-70
2022/04/11 03:17:58;;;;;;;5.30;1.85;;;;;;;;;;5004909;28;20032;-70
2022/04/11 03:20:24;;;;;;;11.98;2.60;;;;;;;;;;5010472;28;20170;-70
2022/04/11 03:22:50;;;;;;;6.18;1.98;;;;;;;;;;5008216;28;20033;-70
2022/04/11 03:25:17;;;;;;;2.70;1.35;;;;;;;;;;5013814;28;20033;-70
2022/04/11 03:27:43;;;;;;;6.57;1.75;;;;;;;;;;5008325;28;20098;-70
2022/04/11 03:30:09;;;;;;;5.30;1.67;;;;;;;;;;4992769;28;20543;-70
2022/04/11 03:32:35;;;;;;;7.85;1.80;;;;;;;;;;5011342;28;20156;-70
2022/04/11 03:35:02;;;;;;;5.95;1.48;;;;;;;;;;5011980;28;20100;-70
2022/04/11 03:37:28;;;;;;;8.27;1.80;;;;;;;;;;5015260;28;20124;-73
2022/04/11 03:39:54;;;;;;;10.27;2.33;;;;;;;;;;5005112;28;20031;-70
2022/04/11 03:42:20;;;;;;;4.68;1.58;;;;;;;;;;4995306;28;20087;-70
2022/04/11 03:44:46;;;;;;;8.10;2.10;;;;;;;;;;5014056;28;20033;-70
2022/04/11 03:47:12;;;;;;;4.30;2.03;;;;;;;;;;5011604;28;20037;-71
2022/04/11 03:49:39;;;;;;;5.35;1.80;;;;;;;;;;5013258;28;20513;-72
2022/04/11 03:52:05;;;;;;;5.93;1.48;;;;;;;;;;5012826;28;20764;-73
2022/04/11 03:54:31;;;;;;;5.97;2.00;;;;;;;;;;5012762;28;20091;-71
2022/04/11 03:56:57;;;;;;;6.10;2.13;;;;;;;;;;5015269;28;20021;-70
2022/04/11 03:59:23;;;;;;;8.20;1.90;;;;;;;;;;5018586;28;20048;-70
2022/04/11 04:01:50;;;;;;;9.20;1.98;;;;;;;;;;5014818;28;20037;-71
2022/04/11 04:04:16;;;;;;;6.00;1.83;;;;;;;;;;5010939;28;20029;-70
2022/04/11 04:06:42;;;;;;;10.85;2.22;;;;;;;;;;5015887;28;20029;-70
2022/04/11 04:09:08;;;;;;;6.97;1.77;;;;;;;;;;5014460;28;20093;-71
2022/04/11 04:14:44;;;;;;;5.72;1.65;;;;;;;;;;5050904;22;20141;-76
2022/04/11 04:17:10;;;;;;;4.30;1.52;;;;;;;;;;5029885;28;20428;-69
2022/04/11 04:19:36;;;;;;;4.18;1.45;;;;;;;;;;5033237;28;20038;-69
2022/04/11 04:22:03;;;;;;;5.88;1.50;;;;;;;;;;5041406;28;20382;-69
2022/04/11 04:24:29;;;;;;;4.85;1.63;;;;;;;;;;5041632;28;20036;-69
2022/04/11 04:26:55;;;;;;;9.20;1.75;;;;;;;;;;5038523;28;20076;-69
2022/04/11 04:29:21;;;;;;;7.22;1.80;;;;;;;;;;5039361;28;20036;-68
2022/04/11 04:31:49;;;;;;;8.20;1.60;;;;;;;;;;5032621;28;20203;-69
2022/04/11 04:34:15;;;;;;;6.90;1.73;;;;;;;;;;5030011;28;20503;-69
2022/04/11 04:36:41;;;;;;;6.25;1.50;;;;;;;;;;5039411;28;20463;-70
2022/04/11 04:39:08;;;;;;;8.80;1.98;;;;;;;;;;5037895;28;20112;-69
2022/04/11 04:41:34;;;;;;;7.45;1.77;;;;;;;;;;5038056;28;20086;-68
2022/04/11 04:44:00;;;;;;;4.32;1.70;;;;;;;;;;5040182;28;20040;-69
2022/04/11 04:46:26;;;;;;;5.75;1.95;;;;;;;;;;5041425;28;20036;-69
2022/04/11 04:48:52;;;;;;;7.53;2.40;;;;;;;;;;5040623;28;20523;-68
2022/04/11 04:51:20;;;;;;;5.45;1.52;;;;;;;;;;5038603;28;20354;-69
2022/04/11 04:53:46;;;;;;;7.13;1.77;;;;;;;;;;5039046;28;20040;-69
2022/04/11 04:56:12;;;;;;;4.43;1.80;;;;;;;;;;5040401;28;20056;-69
2022/04/11 04:58:38;;;;;;;7.18;1.70;;;;;;;;;;5041117;28;20035;-69
2022/04/11 05:01:04;;;;;;;5.85;1.83;;;;;;;;;;5036523;28;20410;-69
2022/04/11 05:03:30;;;;;;;3.38;1.48;;;;;;;;;;5039665;28;20040;-69
2022/04/11 05:05:57;;;;;;;9.30;2.05;;;;;;;;;;5036559;28;20377;-72
2022/04/11 05:08:23;;;;;;;4.63;2.20;;;;;;;;;;5042251;28;20126;-70
2022/04/11 05:10:49;;;;;;;5.82;1.92;;;;;;;;;;5040817;28;20036;-75
2022/04/11 05:13:15;;;;;;;7.68;2.30;;;;;;;;;;5031670;28;20052;-69
2022/04/11 05:15:42;;;;;;;4.85;2.30;;;;;;;;;;5023885;28;20100;-70
2022/04/11 05:18:09;;;;;;;8.23;2.80;;;;;;;;;;5008135;28;20065;-76
2022/04/11 05:20:35;;;;;;;10.98;2.50;;;;;;;;;;5001483;28;20037;-75
2022/04/11 05:23:01;;;;;;;12.38;2.90;;;;;;;;;;5013728;28;20036;-69
2022/04/11 05:25:27;;;;;;;11.27;2.80;;;;;;;;;;5015732;28;20820;-69
2022/04/11 05:27:53;;;;;;;6.13;2.60;;;;;;;;;;5017656;28;20477;-69
2022/04/11 05:30:19;;;;;;;10.43;2.67;;;;;;;;;;5016589;28;20089;-69
2022/04/11 05:32:46;;;;;;;7.32;2.72;;;;;;;;;;5015402;28;20469;-70
2022/04/11 05:35:12;;;;;;;10.68;3.13;;;;;;;;;;5021002;28;20256;-70
2022/04/11 05:37:38;;;;;;;9.40;3.30;;;;;;;;;;5015689;28;20022;-70
2022/04/11 05:40:05;;;;;;;12.40;4.30;;;;;;;;;;5004609;28;20044;-69
2022/04/11 05:42:32;;;;;;;18.33;13.20;;;;;;;;;;5007545;28;20485;-70
2022/04/11 05:44:58;;;;;;;14.10;10.43;;;;;;;;;;5000535;28;20556;-69
2022/04/11 05:47:24;;;;;;;12.70;4.70;;;;;;;;;;5002116;28;20034;-70
2022/04/11 05:49:50;;;;;;;11.90;5.00;;;;;;;;;;5010534;28;20021;-69
2022/04/11 05:52:18;;;;;;;8.65;3.53;;;;;;;;;;5012222;28;20029;-69
2022/04/11 05:54:44;;;;;;;9.20;4.47;;;;;;;;;;5017506;28;20076;-69
2022/04/11 05:57:11;;;;;;;9.85;5.78;;;;;;;;;;5003226;28;20037;-69
2022/04/11 05:59:37;;;;;;;10.85;6.22;;;;;;;;;;5001633;28;20036;-69
2022/04/11 06:02:03;;;;;;;10.75;7.68;;;;;;;;;;5012376;28;20037;-69
2022/04/11 06:04:29;;;;;;;18.88;10.45;;;;;;;;;;5011113;28;20042;-73
2022/04/11 06:06:55;;;;;;;16.33;11.15;;;;;;;;;;5006410;28;20071;-69
2022/04/11 06:09:22;;;;;;;26.40;11.45;;;;;;;;;;5001835;28;20105;-69
2022/04/11 06:11:48;;;;;;;16.60;12.30;;;;;;;;;;5001345;28;20060;-70
2022/04/11 06:14:14;;;;;;;20.58;12.40;;;;;;;;;;5007738;28;20049;-70
2022/04/11 06:16:40;;;;;;;25.35;15.82;;;;;;;;;;5003142;28;20433;-69
2022/04/11 06:19:06;;;;;;;29.50;14.95;;;;;;;;;;5008436;28;20026;-70
2022/04/11 06:21:32;;;;;;;22.80;11.50;;;;;;;;;;5000675;28;20473;-71
2022/04/11 06:23:59;;;;;;;16.23;9.05;;;;;;;;;;5001030;28;20041;-71
2022/04/11 06:26:25;;;;;;;27.98;12.55;;;;;;;;;;5001157;28;20034;-69
2022/04/11 06:28:51;;;;;;;12.93;5.68;;;;;;;;;;5008259;28;20113;-69
2022/04/11 06:31:17;;;;;;;5.97;2.08;;;;;;;;;;5015584;28;20021;-70
2022/04/11 06:33:43;;;;;;;8.20;3.45;;;;;;;;;;5004927;28;20318;-69
2022/04/11 06:36:09;;;;;;;7.55;2.88;;;;;;;;;;5018703;28;20497;-69
2022/04/11 06:38:36;;;;;;;5.38;2.55;;;;;;;;;;5005128;28;20057;-69
2022/04/11 06:41:03;;;;;;;7.40;3.00;;;;;;;;;;5002155;28;20033;-69
2022/04/11 06:43:29;;;;;;;7.55;2.90;;;;;;;;;;4999714;28;20252;-69
2022/04/11 06:45:55;;;;;;;6.82;2.50;;;;;;;;;;5010123;28;20196;-69
2022/04/11 06:48:21;;;;;;;8.70;2.22;;;;;;;;;;5009680;28;20087;-70
2022/04/11 06:50:50;;;;;;;10.00;1.38;;;;;;;;;;5017567;28;20083;-70
2022/04/11 06:53:16;;;;;;;4.90;1.63;;;;;;;;;;5000876;28;20362;-72
2022/04/11 06:55:47;;;;;;;8.23;1.75;;;;;;;;;;5005368;28;20033;-69
2022/04/11 06:58:14;;;;;;;14.85;1.98;;;;;;;;;;5015291;28;20040;-69
2022/04/11 07:00:40;;;;;;;4.93;1.48;;;;;;;;;;5019950;28;20033;-71
2022/04/11 07:03:06;;;;;;;8.02;1.30;;;;;;;;;;5003121;28;20036;-70
2022/04/11 07:05:32;;;;;;;6.85;1.80;;;;;;;;;;5019372;28;20861;-78
2022/04/11 07:07:59;;;;;;;4.50;1.80;;;;;;;;;;5005855;28;20038;-69
2022/04/11 07:10:25;;;;;;;6.95;2.00;;;;;;;;;;5021921;28;20026;-69
2022/04/11 07:12:51;;;;;;;7.05;2.20;;;;;;;;;;5017556;28;20038;-70
2022/04/11 07:15:17;;;;;;;7.13;2.78;;;;;;;;;;5007197;28;20057;-69
2022/04/11 07:17:44;;;;;;;9.95;3.55;;;;;;;;;;5008180;28;20061;-69
2022/04/11 07:20:10;;;;;;;8.80;1.90;;;;;;;;;;5005432;28;20061;-69
2022/04/11 07:22:37;;;;;;;5.32;2.00;;;;;;;;;;5004360;28;20025;-69
2022/04/11 07:25:03;;;;;;;4.93;1.77;;;;;;;;;;5001564;28;20021;-69
2022/04/11 07:27:29;;;;;;;14.15;2.88;;;;;;;;;;5002034;28;20037;-69
2022/04/11 07:29:55;;;;;;;6.22;2.75;;;;;;;;;;5003629;28;20418;-69
2022/04/11 07:32:21;;;;;;;8.00;2.35;;;;;;;;;;5005911;28;20029;-69
2022/04/11 07:34:48;;;;;;;10.70;3.15;;;;;;;;;;5021966;28;20030;-69
2022/04/11 07:37:14;;;;;;;14.32;3.28;;;;;;;;;;5021776;28;20055;-69
2022/04/11 07:39:40;;;;;;;8.20;2.58;;;;;;;;;;5018373;28;20407;-69
2022/04/11 07:42:06;;;;;;;8.35;2.20;;;;;;;;;;5002619;28;20041;-69
2022/04/11 07:44:32;;;;;;;6.63;1.70;;;;;;;;;;5016585;28;20036;-69
2022/04/11 07:46:59;;;;;;;8.52;3.10;;;;;;;;;;5012909;28;20359;-83
2022/04/11 07:49:25;;;;;;;7.30;2.40;;;;;;;;;;5003914;28;20482;-78
2022/04/11 07:51:51;;;;;;;9.15;4.03;;;;;;;;;;5003971;28;20137;-78
2022/04/11 07:54:17;;;;;;;13.70;6.68;;;;;;;;;;5005300;28;20041;-72
2022/04/11 07:56:43;;;;;;;12.02;4.85;;;;;;;;;;5013191;28;20484;-69
2022/04/11 07:59:09;;;;;;;11.48;5.63;;;;;;;;;;4999179;28;20121;-70
2022/04/11 08:01:35;;;;;;;10.60;3.35;;;;;;;;;;4998103;28;20026;-69
2022/04/11 08:04:01;;;;;;;5.05;1.90;;;;;;;;;;5002230;28;20025;-69
2022/04/11 08:06:28;;;;;;;6.03;2.40;;;;;;;;;;5010288;28;20337;-73
2022/04/11 08:08:54;;;;;;;6.32;2.55;;;;;;;;;;5002258;28;21028;-69
2022/04/11 08:11:20;;;;;;;8.18;2.38;;;;;;;;;;5010397;28;20082;-69
2022/04/11 08:13:46;;;;;;;12.25;3.72;;;;;;;;;;4998210;28;20287;-70
2022/04/11 08:16:13;;;;;;;8.00;3.03;;;;;;;;;;5009537;28;20639;-70
2022/04/11 08:18:39;;;;;;;10.75;2.92;;;;;;;;;;5007142;28;20052;-70
2022/04/11 08:21:05;;;;;;;6.40;2.30;;;;;;;;;;5014511;28;20026;-70
2022/04/11 08:23:32;;;;;;;9.55;3.28;;;;;;;;;;5006548;28;20117;-70
2022/04/11 08:25:58;;;;;;;11.98;3.42;;;;;;;;;;5022735;28;20052;-70
2022/04/11 08:28:24;;;;;;;8.85;3.45;;;;;;;;;;5027158;28;20117;-72
2022/04/11 08:30:50;;;;;;;7.53;3.15;;;;;;;;;;5011813;28;20436;-75
2022/04/11 08:33:17;;;;;;;12.73;3.80;;;;;;;;;;5009994;28;20611;-70
2022/04/11 08:35:43;;;;;;;7.82;3.10;;;;;;;;;;5005869;28;20055;-72
2022/04/11 08:38:09;;;;;;;8.75;3.10;;;;;;;;;;5017679;28;20052;-73
2022/04/11 08:40:36;;;;;;;5.40;2.90;;;;;;;;;;5002379;28;20026;-71
2022/04/11 08:43:02;;;;;;;6.22;2.38;;;;;;;;;;5001940;28;20024;-76
2022/04/11 08:45:29;;;;;;;8.82;4.18;;;;;;;;;;5007775;28;20036;-71
2022/04/11 08:47:59;;;;;;;7.10;2.40;;;;;;;;;;5018455;28;20021;-76
2022/04/11 08:50:26;;;;;;;7.95;3.30;;;;;;;;;;5021250;28;20048;-71
2022/04/11 08:52:54;;;;;;;7.03;2.83;;;;;;;;;;5017633;28;20032;-73
2022/04/11 08:55:21;;;;;;;3.97;1.63;;;;;;;;;;5015454;28;20044;-70
2022/04/11 08:57:47;;;;;;;5.22;2.05;;;;;;;;;;5013556;28;20029;-70
2022/04/11 09:00:15;;;;;;;9.48;2.25;;;;;;;;;;5003347;28;20036;-73
2022/04/11 09:02:42;;;;;;;6.10;1.95;;;;;;;;;;5002921;28;20030;-70
2022/04/11 09:05:09;;;;;;;4.00;1.80;;;;;;;;;;5004922;28;20492;-70
2022/04/11 09:07:51;;;;;;;3.30;1.35;;;;;;;;;;5011579;28;20041;-78
2022/04/11 09:10:19;;;;;;;4.80;1.88;;;;;;;;;;5018397;28;20542;-71
2022/04/11 09:12:52;;;;;;;4.10;1.50;;;;;;;;;;5026034;28;20504;-71
2022/04/11 09:15:19;;;;;;;5.85;1.60;;;;;;;;;;5006351;28;20087;-72
2022/04/11 09:17:46;;;;;;;10.73;1.95;;;;;;;;;;5013286;28;20031;-73
2022/04/11 09:20:32;;;;;;;4.10;1.30;;;;;;;;;;5005419;28;20100;-71
2022/04/11 09:22:59;;;;;;;3.30;1.38;;;;;;;;;;5010010;28;20132;-72
2022/04/11 09:25:31;;;;;;;3.10;1.40;;;;;;;;;;5013682;28;20037;-71
2022/04/11 09:28:11;;;;;;;6.53;1.67;;;;;;;;;;5005734;28;20518;-71
2022/04/11 09:30:38;;;;;;;3.42;1.55;;;;;;;;;;5003194;28;20041;-72
2022/04/11 09:33:05;;;;;;;2.47;1.50;;;;;;;;;;5007250;28;20030;-74
2022/04/11 09:35:35;;;;;;;5.65;1.65;;;;;;;;;;5017566;28;20034;-72
2022/04/11 09:38:18;;;;;;;5.93;2.15;;;;;;;;;;5007276;28;20026;-74
2022/04/11 09:40:45;;;;;;;3.17;1.75;;;;;;;;;;5005056;28;20033;-71
2022/04/11 09:43:12;;;;;;;3.20;1.40;;;;;;;;;;5012252;28;20037;-71
2022/04/11 09:45:43;;;;;;;3.15;1.30;;;;;;;;;;5017385;28;20831;-72
2022/04/11 09:48:09;;;;;;;2.35;1.10;;;;;;;;;;5026047;28;20072;-71
2022/04/11 09:50:36;;;;;;;5.50;1.20;;;;;;;;;;5019778;28;20048;-71
2022/04/11 09:53:12;;;;;;;3.10;1.45;;;;;;;;;;5012741;28;20107;-71
2022/04/11 09:55:38;;;;;;;3.85;2.03;;;;;;;;;;5007935;28;20033;-71
2022/04/11 09:58:05;;;;;;;4.25;1.40;;;;;;;;;;5002853;28;20097;-72
2022/04/11 10:00:36;;;;;;;4.45;1.38;;;;;;;;;;5001259;28;20033;-71
2022/04/11 10:03:03;;;;;;;2.40;1.20;;;;;;;;;;5015507;28;20691;-71
2022/04/11 10:05:30;;;;;;;2.28;1.10;;;;;;;;;;5008529;28;20033;-72
2022/04/11 10:07:56;;;;;;;2.20;1.00;;;;;;;;;;5008415;28;20875;-72
2022/04/11 10:10:23;;;;;;;1.92;1.10;;;;;;;;;;5010342;28;20037;-75
2022/04/11 10:12:49;;;;;;;2.95;1.45;;;;;;;;;;5022023;28;20781;-71
2022/04/11 10:15:15;;;;;;;1.75;1.15;;;;;;;;;;5018252;28;20060;-72
2022/04/11 10:17:41;;;;;;;3.33;1.20;;;;;;;;;;5017226;28;20508;-71
2022/04/11 10:20:08;;;;;;;5.95;1.45;;;;;;;;;;5021483;28;20041;-71
2022/04/11 10:22:39;;;;;;;3.92;0.90;;;;;;;;;;5015754;28;20472;-74
2022/04/11 10:25:06;;;;;;;5.70;1.77;;;;;;;;;;5014174;28;20556;-72
2022/04/11 10:27:32;;;;;;;2.83;1.27;;;;;;;;;;5015293;28;20025;-72
2022/04/11 10:29:59;;;;;;;2.65;1.08;;;;;;;;;;5015471;28;20033;-71
2022/04/11 10:32:26;;;;;;;5.43;1.40;;;;;;;;;;5013762;28;20052;-75
2022/04/11 10:34:54;;;;;;;4.45;1.42;;;;;;;;;;5000807;28;20065;-71
2022/04/11 10:37:21;;;;;;;4.78;1.45;;;;;;;;;;4999316;28;20097;-71
2022/04/11 10:39:48;;;;;;;5.18;1.45;;;;;;;;;;5013537;28;20525;-76
2022/04/11 10:42:22;;;;;;;3.40;1.30;;;;;;;;;;5001872;28;20049;-71
2022/04/11 10:44:53;;;;;;;3.75;1.20;;;;;;;;;;5005261;28;20409;-72
2022/04/11 10:47:21;;;;;;;3.28;1.20;;;;;;;;;;5018073;28;20500;-72
2022/04/11 10:49:50;;;;;;;3.50;1.63;;;;;;;;;;5012180;28;20033;-70
2022/04/11 10:52:36;;;;;;;2.60;1.30;;;;;;;;;;5013666;28;20025;-71
2022/04/11 10:55:05;;;;;;;2.33;1.20;;;;;;;;;;5007320;28;20046;-71
2022/04/11 10:57:39;;;;;;;4.32;1.38;;;;;;;;;;5006575;28;20032;-71
2022/04/11 11:00:23;;;;;;;2.38;1.30;;;;;;;;;;5006856;28;20046;-71
2022/04/11 11:02:53;;;;;;;3.20;1.30;;;;;;;;;;5001909;28;20029;-71
2022/04/11 11:05:28;;;;;;;9.45;1.40;;;;;;;;;;5014680;28;20040;-71
2022/04/11 11:08:09;;;;;;;3.65;1.17;;;;;;;;;;5009354;28;20116;-71
2022/04/11 11:10:49;;;;;;;3.17;1.20;;;;;;;;;;5012659;28;20222;-71
2022/04/11 11:13:30;;;;;;;2.10;1.02;;;;;;;;;;5007517;28;20032;-70
2022/04/11 11:16:00;;;;;;;2.72;1.35;;;;;;;;;;5000800;28;20081;-72
2022/04/11 11:21:19;;;;;;;1.30;1.00;;;;;;;;;;5008049;28;20049;-71
2022/04/11 11:24:12;;;;;;;1.58;1.00;;;;;;;;;;5005116;28;20025;-74
2022/04/11 11:26:39;;;;;;;5.78;1.10;;;;;;;;;;5006079;28;20112;-73
2022/04/11 11:29:18;;;;;;;2.63;1.08;;;;;;;;;;5004501;28;20025;-71
2022/04/11 11:31:44;;;;;;;1.60;0.90;;;;;;;;;;5003624;28;20025;-72
2022/04/11 11:34:11;;;;;;;2.55;1.42;;;;;;;;;;5002496;28;20300;-73
2022/04/11 11:36:37;;;;;;;3.65;1.17;;;;;;;;;;5004571;28;20517;-71
2022/04/11 11:39:16;;;;;;;3.88;1.08;;;;;;;;;;4999505;28;20042;-71
2022/04/11 11:41:46;;;;;;;3.30;1.30;;;;;;;;;;5002795;28;20154;-76
2022/04/11 11:44:12;;;;;;;4.30;1.40;;;;;;;;;;5006521;28;20207;-72
2022/04/11 11:46:48;;;;;;;2.17;1.10;;;;;;;;;;5006717;28;20030;-70
2022/04/11 11:49:14;;;;;;;2.67;1.35;;;;;;;;;;5005121;28;20033;-71
2022/04/11 11:51:40;;;;;;;4.70;1.30;;;;;;;;;;5015579;28;20117;-71
2022/04/11 11:54:06;;;;;;;2.88;1.55;;;;;;;;;;5005081;28;20042;-71
2022/04/11 11:56:59;;;;;;;6.85;1.42;;;;;;;;;;5003607;28;20080;-71
2022/04/11 11:59:25;;;;;;;3.30;1.50;;;;;;;;;;5004629;28;20034;-71
2022/04/11 12:04:18;;;;;;;2.67;1.20;;;;;;;;;;5008484;28;20033;-71
2022/04/11 12:04:38;;;;;;;6.68;1.20;;;;;;;;;;5028944;28;20089;-71
2022/04/11 12:07:04;;;;;;;4.07;1.67;;;;;;;;;;5025075;28;20116;-71
2022/04/11 12:09:41;;;;;;;6.30;1.55;;;;;;;;;;5021241;28;20035;-72
2022/04/11 12:12:08;;;;;;;5.50;1.75;;;;;;;;;;5003560;28;20067;-70
2022/04/11 12:15:14;;;;;;;3.85;1.80;;;;;;;;;;5003129;28;20975;-77
2022/04/11 12:17:42;;;;;;;2.35;1.20;;;;;;;;;;4939862;28;20042;-72
2022/04/11 12:20:10;;;;;;;5.88;1.35;;;;;;;;;;4942009;28;20039;-71
2022/04/11 12:22:36;;;;;;;3.50;1.75;;;;;;;;;;4975054;28;20042;-71
2022/04/11 12:25:21;;;;;;;2.28;1.17;;;;;;;;;;5006709;28;20120;-72
2022/04/11 12:27:49;;;;;;;2.78;1.55;;;;;;;;;;5005532;28;20044;-71
2022/04/11 12:30:15;;;;;;;3.33;1.30;;;;;;;;;;5007841;28;20658;-71
2022/04/11 12:32:41;;;;;;;4.80;1.27;;;;;;;;;;5003127;28;20025;-73
2022/04/11 12:35:18;;;;;;;4.07;1.20;;;;;;;;;;5007644;28;20033;-74
2022/04/11 12:37:48;;;;;;;2.95;1.42;;;;;;;;;;5016996;28;20037;-71
2022/04/11 12:40:15;;;;;;;3.60;1.30;;;;;;;;;;5004597;28;20096;-71
2022/04/11 12:42:42;;;;;;;3.58;1.25;;;;;;;;;;5008499;28;20024;-71
2022/04/11 12:45:09;;;;;;;2.58;1.15;;;;;;;;;;5000563;28;20030;-71
2022/04/11 12:47:53;;;;;;;4.60;1.67;;;;;;;;;;5007644;28;20991;-71
2022/04/11 12:50:22;;;;;;;4.28;1.30;;;;;;;;;;5008743;28;20034;-71
2022/04/11 12:52:49;;;;;;;3.30;1.30;;;;;;;;;;5010618;28;20416;-76
2022/04/11 12:55:15;;;;;;;3.08;1.23;;;;;;;;;;5017537;28;20036;-71
2022/04/11 12:57:41;;;;;;;8.25;1.92;;;;;;;;;;5018777;28;20029;-71
2022/04/11 13:00:15;;;;;;;1.85;1.05;;;;;;;;;;5016800;28;20030;-71
2022/04/11 13:02:41;;;;;;;3.08;1.30;;;;;;;;;;5009979;28;20052;-71
2022/04/11 13:05:12;;;;;;;2.75;1.20;;;;;;;;;;5029919;28;20112;-72
2022/04/11 13:07:39;;;;;;;3.47;1.37;;;;;;;;;;5025419;28;20033;-72
2022/04/11 13:10:06;;;;;;;3.13;0.88;;;;;;;;;;5012751;28;20092;-73
2022/04/11 13:12:32;;;;;;;4.65;1.17;;;;;;;;;;5008188;28;20774;-71
2022/04/11 13:14:58;;;;;;;1.80;1.00;;;;;;;;;;5006413;28;20052;-71
2022/04/11 13:20:10;;;;;;;5.00;1.30;;;;;;;;;;5017563;28;20091;-71
2022/04/11 13:22:36;;;;;;;2.67;1.58;;;;;;;;;;5012052;28;20028;-71
2022/04/11 13:25:03;;;;;;;5.10;1.42;;;;;;;;;;5004013;28;20032;-75
2022/04/11 13:27:29;;;;;;;2.75;1.35;;;;;;;;;;5001647;28;20093;-73
2022/04/11 13:29:56;;;;;;;2.83;1.45;;;;;;;;;;5008246;28;20067;-71
2022/04/11 13:32:22;;;;;;;4.35;1.50;;;;;;;;;;5010861;28;20028;-71
2022/04/11 13:34:49;;;;;;;1.25;1.05;;;;;;;;;;5012973;28;20077;-72
2022/04/11 13:37:17;;;;;;;4.85;1.05;;;;;;;;;;5017278;28;20026;-71
2022/04/11 13:39:43;;;;;;;4.82;1.40;;;;;;;;;;5005814;28;20837;-71
2022/04/11 13:42:09;;;;;;;2.35;1.15;;;;;;;;;;5010956;28;20037;-71
2022/04/11 13:44:35;;;;;;;6.03;1.60;;;;;;;;;;5018248;28;20026;-71
2022/04/11 13:47:02;;;;;;;3.15;1.23;;;;;;;;;;5019074;28;20033;-71
2022/04/11 13:49:28;;;;;;;5.70;1.30;;;;;;;;;;5010219;28;20034;-72
2022/04/11 13:51:54;;;;;;;2.22;1.27;;;;;;;;;;5012246;28;20030;-71
2022/04/11 13:54:20;;;;;;;2.45;1.20;;;;;;;;;;5010871;28;20053;-71
2022/04/11 13:56:46;;;;;;;2.67;1.30;;;;;;;;;;5020603;28;20026;-72
2022/04/11 13:59:13;;;;;;;4.75;1.38;;;;;;;;;;5020696;28;20560;-72
2022/04/11 14:01:40;;;;;;;2.13;0.88;;;;;;;;;;5019377;28;20021;-71
2022/04/11 14:04:07;;;;;;;4.57;1.25;;;;;;;;;;5007007;28;20663;-71
2022/04/11 14:06:34;;;;;;;4.00;1.10;;;;;;;;;;5000125;28;20030;-71
2022/04/11 14:09:01;;;;;;;3.35;1.02;;;;;;;;;;5004733;28;20026;-71
2022/04/11 14:11:27;;;;;;;2.92;0.98;;;;;;;;;;5006217;28;20501;-71
2022/04/11 14:13:54;;;;;;;1.77;1.00;;;;;;;;;;5005161;28;20038;-71
2022/04/11 14:16:20;;;;;;;3.60;1.20;;;;;;;;;;5017408;28;20103;-71
2022/04/11 14:18:46;;;;;;;2.22;0.88;;;;;;;;;;5016180;28;20033;-71
2022/04/11 14:21:12;;;;;;;2.55;1.15;;;;;;;;;;5002146;28;20026;-71
2022/04/11 14:23:38;;;;;;;3.30;1.05;;;;;;;;;;5013077;28;20520;-72
2022/04/11 14:26:05;;;;;;;6.32;1.10;;;;;;;;;;5003616;28;20052;-71
2022/04/11 14:28:31;;;;;;;1.15;0.75;;;;;;;;;;5006739;28;20029;-71
2022/04/11 14:30:57;;;;;;;2.28;1.00;;;;;;;;;;5007483;28;20026;-71
2022/04/11 14:33:23;;;;;;;2.13;0.85;;;;;;;;;;5001382;28;20120;-73
2022/04/11 14:35:50;;;;;;;2.13;0.93;;;;;;;;;;5009580;28;20127;-79
2022/04/11 14:38:16;;;;;;;2.35;1.15;;;;;;;;;;5014328;28;20103;-72
2022/04/11 14:40:43;;;;;;;3.30;1.20;;;;;;;;;;5012139;28;20017;-77
2022/04/11 14:43:09;;;;;;;2.35;1.10;;;;;;;;;;5000577;28;20099;-71
2022/04/11 14:45:36;;;;;;;1.63;1.10;;;;;;;;;;5007073;28;20030;-72
2022/04/11 14:48:03;;;;;;;3.78;1.17;;;;;;;;;;5003044;28;20715;-72
2022/04/11 14:50:29;;;;;;;1.85;1.27;;;;;;;;;;5021754;28;20037;-71